PASMPADL

Guest
Details From PASM - ST MARYS
To PADL - DILLINGHAM
Flight Number -
Tags generated
Created
Modified
Stats Distance 232 nm / 429 km
Max Altitude 27,500 ft / 8,382 m
Waypoints 4
Social Downloads 0
Likes 0
Share VATSIM

Download

Looking for another format? Having issues loading an existing format? Contact us
Advertisement - Login to hide

Notes

Basic altitude profile: - Ascent Rate: 2500ft/min - Ascent Speed: 250kts - Cruise Altitude: 35000ft - Cruise Speed: 420kts - Descent Rate: 1500ft/min - Descent Speed: 250kts Options: - Use NATs: yes - Use PACOTS: yes - Use low airways: yes - Use high airways: yes

Route

PASM BUBAC V506 CAYON PADL

ID Type Via Altitude Latitude Longitude Leg Dist Tot Dist Heading (true) Name
O PASM APT - 0 ft / 0 m 62.05818˚ -163.30311˚ - 0 nm - ST MARYS
BUBAC FIX - 27,500 ft / 8,382 m 60.66546˚ -161.49806˚ 98 nm 98 nm 147° / 149° -
CAYON FIX V506 (AWY-LO) 17,000 ft / 5,182 m 60.38387˚ -160.74624˚ 27 nm 126 nm 127° / 128° -
O PADL APT - 0 ft / 0 m 59.04467˚ -158.50551˚ 105 nm 231 nm 139° / 141° DILLINGHAM

Altitude Profile

Advertisement - Login to hide

Weather


0- 5 10 15 20 25 30 35+ Temperature / ° C

Clouds and Precipitation
Forecast for 2017-12-17 12:00 UTC. Updated an hour ago

Ground ~20,000 ft ~40,000 ft Winds

PASM

Details ICAO PASM (KSM)
Name ST MARYS
Region USA (Alaska)
Timezone America/Nome (UTC-9.0)
Stats Elevation 311 ft / 95 m (AMSL)
Location 62.058179° -163.303112°
Runways 2
Magnetic Variation 10.910° E

METAR

PASM 171156Z AUTO 00000KT 10SM CLR M04/M04 A2946 RMK AO2 SNB21E37 SLP992 P0000 60000 70006 T10391044 11022 21039 53020 FZRANO

Decode

TAF

Not found

Departure Runways

ID Width Length Bearing (true) Bearing (mag) Surface Threshold Offset Overrun Length
06 59 ft / 18 m 1,521 ft / 464 m 77.35° 66.44° Gravel 0 ft / 0 m 0 ft / 0 m
17 151 ft / 46 m 6,014 ft / 1,833 m 182.45° 171.54° Gravel 0 ft / 0 m 0 ft / 0 m
24 59 ft / 18 m 1,521 ft / 464 m 257.36° 246.45° Gravel 374 ft / 114 m 0 ft / 0 m
35 151 ft / 46 m 6,014 ft / 1,833 m 2.44° 351.53° Gravel 0 ft / 0 m 0 ft / 0 m

PADL

Details ICAO PADL (DLG)
Name DILLINGHAM
Region USA (Alaska)
Timezone America/Anchorage (UTC-9.0)
Stats Elevation 74 ft / 23 m (AMSL)
Location 59.044674° -158.505513°
Runways 1
Magnetic Variation 12.762° E

METAR

PADL 171156Z AUTO 02004KT 10SM CLR M06/M07 A2938

Decode

TAF

PADL 171145Z 1712/1812 01005KT P6SM SCT012 TEMPO 1712/1716 BKN012 FM171800 30007KT P6SM FEW150

Decode

Destination Runways

ID Width Length Bearing (true) Bearing (mag) Surface Threshold Offset Overrun Length
01 151 ft / 46 m 6,389 ft / 1,947 m 26.44° 13.68° Asphalt 0 ft / 0 m 0 ft / 0 m
19 151 ft / 46 m 6,389 ft / 1,947 m 206.45° 193.69° Asphalt 0 ft / 0 m 0 ft / 0 m

Approach Navaids

Runway Type Ident Frequency Range Bearing (true) Bearing (mag) Slope Elevation
19 Localiser IDLG 111.90 MHz 18 nm / 33 km 206.44° 193.68° - 53 ft / 16 m (AMSL)
19 DME IDLG 111.90 MHz 18 nm / 33 km - - - 72 ft / 22 m (AMSL)

Popular Alternatives